createdAt,value
2023-02-02T00:01:24.705Z,1.50
2023-02-02T00:03:51.904Z,1.30
2023-02-02T00:06:20.596Z,1.42
2023-02-02T00:08:48.012Z,1.55
2023-02-02T00:11:15.290Z,1.42
2023-02-02T00:13:42.090Z,1.70
2023-02-02T00:16:27.087Z,0.95
2023-02-02T00:19:02.738Z,1.17
2023-02-02T00:21:29.436Z,1.50
2023-02-02T00:23:56.698Z,2.17
2023-02-02T00:26:23.614Z,0.70
2023-02-02T00:28:50.390Z,1.02
2023-02-02T00:31:16.980Z,1.05
2023-02-02T00:33:47.970Z,1.20
2023-02-02T00:36:14.956Z,1.15
2023-02-02T00:38:41.564Z,0.60
2023-02-02T00:41:08.211Z,1.10
2023-02-02T00:43:34.808Z,0.95
2023-02-02T00:46:02.103Z,1.25
2023-02-02T00:48:28.691Z,1.13
2023-02-02T00:50:55.712Z,0.87
2023-02-02T00:53:22.537Z,1.58
2023-02-02T00:55:49.156Z,1.15
2023-02-02T00:58:15.840Z,1.00
2023-02-02T01:00:42.495Z,0.93
2023-02-02T01:03:10.531Z,1.10
2023-02-02T01:05:37.014Z,1.08
2023-02-02T01:08:03.542Z,1.00
2023-02-02T01:10:30.334Z,1.50
2023-02-02T01:12:56.903Z,0.90
2023-02-02T01:15:23.603Z,1.70
2023-02-02T01:17:50.555Z,1.08
2023-02-02T01:20:19.432Z,0.85
2023-02-02T01:22:47.079Z,1.15
2023-02-02T01:25:14.105Z,2.42
2023-02-02T01:27:40.891Z,1.10
2023-02-02T01:30:08.581Z,1.10
2023-02-02T01:32:35.038Z,1.15
2023-02-02T01:35:01.693Z,1.30
2023-02-02T01:37:28.175Z,1.13
2023-02-02T01:39:54.697Z,1.23
2023-02-02T01:42:23.951Z,1.38
2023-02-02T01:45:05.407Z,1.30
2023-02-02T01:47:37.644Z,1.02
2023-02-02T01:50:06.382Z,1.25
2023-02-02T01:52:34.877Z,1.20
2023-02-02T01:55:08.631Z,1.73
2023-02-02T01:57:41.673Z,1.52
2023-02-02T02:00:12.696Z,0.98
2023-02-02T02:02:41.973Z,1.08
2023-02-02T02:05:09.806Z,1.30
2023-02-02T02:07:37.760Z,1.00
2023-02-02T02:10:04.705Z,1.52
2023-02-02T02:12:31.293Z,1.20
2023-02-02T02:15:16.446Z,1.02
2023-02-02T02:18:22.158Z,1.17
2023-02-02T02:21:45.576Z,0.88
2023-02-02T02:24:51.032Z,1.45
2023-02-02T02:27:39.487Z,1.75
2023-02-02T02:30:21.224Z,1.00
2023-02-02T02:33:22.629Z,1.00
2023-02-02T02:36:10.812Z,1.10
2023-02-02T02:38:45.263Z,2.55
2023-02-02T02:41:23.306Z,1.13
2023-02-02T02:44:20.042Z,1.00
2023-02-02T02:46:48.190Z,1.13
2023-02-02T02:49:14.992Z,0.90
2023-02-02T02:51:52.811Z,0.80
2023-02-02T02:54:27.135Z,1.30
2023-02-02T02:57:08.771Z,1.13
2023-02-02T02:59:53.326Z,0.93
2023-02-02T03:02:29.125Z,1.20
2023-02-02T03:05:05.482Z,0.90
2023-02-02T03:08:02.194Z,0.98
2023-02-02T03:10:30.531Z,1.00
2023-02-02T03:12:58.058Z,1.43
2023-02-02T03:15:25.047Z,1.08
2023-02-02T03:17:53.674Z,1.15
2023-02-02T03:20:20.314Z,1.23
2023-02-02T03:22:46.823Z,0.90
2023-02-02T03:25:13.382Z,1.27
2023-02-02T03:27:40.390Z,1.17
2023-02-02T03:30:10.361Z,1.08
2023-02-02T03:32:37.926Z,0.90
2023-02-02T03:35:04.817Z,0.98
2023-02-02T03:37:31.498Z,0.80
2023-02-02T03:39:58.065Z,1.20
2023-02-02T03:42:24.617Z,1.00
2023-02-02T03:44:51.153Z,0.65
2023-02-02T03:47:17.850Z,1.42
2023-02-02T03:49:44.326Z,1.10
2023-02-02T03:52:10.813Z,1.00
2023-02-02T03:54:37.358Z,1.15
2023-02-02T03:57:04.039Z,1.45
2023-02-02T03:59:30.552Z,1.65
2023-02-02T04:01:57.289Z,1.13
2023-02-02T04:04:24.056Z,1.20
2023-02-02T04:06:50.650Z,1.30
2023-02-02T04:09:17.278Z,1.00
2023-02-02T04:11:43.874Z,0.80
2023-02-02T04:14:10.748Z,0.93
2023-02-02T04:16:37.878Z,1.17
2023-02-02T04:19:05.020Z,1.10
2023-02-02T04:21:31.770Z,0.90
2023-02-02T04:23:58.443Z,1.17
2023-02-02T04:26:26.237Z,1.07
2023-02-02T04:28:53.569Z,0.82
2023-02-02T04:31:20.320Z,1.20
2023-02-02T04:33:46.891Z,0.70
2023-02-02T04:36:13.582Z,0.93
2023-02-02T04:38:40.192Z,0.70
2023-02-02T04:41:08.634Z,0.75
2023-02-02T04:43:36.441Z,1.10
2023-02-02T04:46:03.606Z,1.05
2023-02-02T04:48:30.730Z,1.75
2023-02-02T04:51:01.563Z,0.53
2023-02-02T04:53:29.016Z,0.98
2023-02-02T04:55:56.465Z,1.20
2023-02-02T04:58:23.078Z,1.00
2023-02-02T05:00:49.863Z,0.90
2023-02-02T05:03:16.533Z,0.90
2023-02-02T05:05:43.149Z,0.98
2023-02-02T05:08:12.010Z,0.90
2023-02-02T05:10:42.138Z,1.00
2023-02-02T05:13:09.601Z,0.70
2023-02-02T05:15:36.222Z,1.10
2023-02-02T05:18:02.939Z,1.05
2023-02-02T05:20:29.649Z,1.20
2023-02-02T05:22:56.185Z,1.20
2023-02-02T05:25:23.105Z,0.70
2023-02-02T05:27:49.925Z,0.90
2023-02-02T05:30:17.294Z,1.08
2023-02-02T05:32:43.997Z,1.00
2023-02-02T05:35:11.275Z,1.35
2023-02-02T05:37:38.061Z,1.23
2023-02-02T05:40:04.931Z,0.80
2023-02-02T05:42:31.526Z,0.90
2023-02-02T05:44:58.312Z,0.73
2023-02-02T05:47:24.960Z,1.17
2023-02-02T05:49:51.605Z,0.85
2023-02-02T05:52:21.896Z,0.50
2023-02-02T05:54:48.428Z,1.20
2023-02-02T05:57:15.170Z,1.27
2023-02-02T05:59:41.836Z,0.90
2023-02-02T06:02:08.473Z,0.90
2023-02-02T06:04:34.997Z,0.80
2023-02-02T06:07:01.480Z,1.02
2023-02-02T06:09:28.109Z,1.02
2023-02-02T06:11:54.663Z,0.70
2023-02-02T06:14:21.313Z,0.90
2023-02-02T06:16:47.831Z,1.10
2023-02-02T06:19:14.310Z,1.65
2023-02-02T06:21:41.129Z,1.50
2023-02-02T06:24:07.828Z,1.13
2023-02-02T06:26:34.443Z,1.20
2023-02-02T06:29:01.244Z,0.97
2023-02-02T06:31:28.060Z,0.93
2023-02-02T06:33:59.892Z,0.73
2023-02-02T06:36:29.355Z,1.10
2023-02-02T06:39:00.089Z,1.20
2023-02-02T06:41:26.754Z,1.20
2023-02-02T06:43:53.263Z,0.70
2023-02-02T06:46:19.929Z,0.55
2023-02-02T06:48:46.743Z,0.73
2023-02-02T06:51:13.395Z,0.90
2023-02-02T06:53:39.996Z,0.90
2023-02-02T06:56:13.819Z,1.38
2023-02-02T06:58:40.744Z,0.60
2023-02-02T07:01:10.533Z,0.55
2023-02-02T07:03:37.786Z,1.13
2023-02-02T07:06:16.923Z,0.73
2023-02-02T07:08:43.730Z,0.60
2023-02-02T07:11:15.401Z,1.58
2023-02-02T07:13:44.364Z,0.60
2023-02-02T07:16:16.616Z,1.40
2023-02-02T07:18:44.396Z,0.70
2023-02-02T07:21:20.362Z,0.60
2023-02-02T07:23:47.156Z,0.60
2023-02-02T07:26:15.207Z,0.55
2023-02-02T07:28:42.621Z,1.10
2023-02-02T07:31:17.786Z,0.83
2023-02-02T07:33:48.922Z,0.80
2023-02-02T07:36:18.612Z,0.70
2023-02-02T07:38:47.482Z,1.45
2023-02-02T07:41:17.982Z,0.60
2023-02-02T07:43:48.036Z,0.83
2023-02-02T07:46:15.667Z,0.80
2023-02-02T07:48:42.372Z,0.88
2023-02-02T07:51:16.499Z,0.98
2023-02-02T07:53:44.975Z,0.80
2023-02-02T07:56:19.087Z,0.67
2023-02-02T07:58:46.149Z,0.73
2023-02-02T08:01:15.552Z,0.70
2023-02-02T08:03:43.268Z,0.52
2023-02-02T08:06:16.630Z,1.23
2023-02-02T08:08:43.322Z,1.10
2023-02-02T08:11:11.876Z,0.77
2023-02-02T08:13:39.825Z,0.68
2023-02-02T08:16:24.445Z,0.75
2023-02-02T08:18:51.367Z,0.70
2023-02-02T08:21:19.507Z,0.67
2023-02-02T08:23:46.221Z,0.40
2023-02-02T08:26:29.681Z,0.35
2023-02-02T08:29:08.397Z,0.50
2023-02-02T08:31:41.831Z,0.60
2023-02-02T08:34:10.840Z,0.57
2023-02-02T08:36:37.741Z,0.98
2023-02-02T08:39:06.979Z,0.77
2023-02-02T08:41:36.890Z,0.60
2023-02-02T08:44:13.637Z,0.50
2023-02-02T08:46:41.373Z,0.70
2023-02-02T08:49:12.085Z,0.77
2023-02-02T08:51:38.775Z,0.70
2023-02-02T08:54:05.523Z,0.55
2023-02-02T08:56:32.420Z,0.95
2023-02-02T08:59:04.928Z,0.73
2023-02-02T09:01:36.429Z,0.52
2023-02-02T09:04:08.657Z,0.60
2023-02-02T09:06:40.193Z,0.60
2023-02-02T09:09:15.205Z,0.80
2023-02-02T09:11:43.436Z,0.40
2023-02-02T09:14:12.764Z,0.90
2023-02-02T09:16:40.637Z,0.60
2023-02-02T09:19:15.807Z,0.60
2023-02-02T09:21:42.873Z,0.55
2023-02-02T09:24:12.492Z,0.50
2023-02-02T09:26:40.358Z,0.50
2023-02-02T09:29:11.007Z,0.70
2023-02-02T09:31:38.705Z,0.40
2023-02-02T09:34:14.853Z,0.32
2023-02-02T09:36:43.003Z,0.20
2023-02-02T09:39:12.957Z,0.50
2023-02-02T09:41:48.136Z,0.60
2023-02-02T09:44:37.029Z,0.50
2023-02-02T09:47:18.916Z,0.85
2023-02-02T09:50:13.607Z,0.20
2023-02-02T09:53:02.408Z,0.52
2023-02-02T09:55:41.795Z,0.60
2023-02-02T09:58:18.928Z,0.40
2023-02-02T10:00:48.689Z,0.90
2023-02-02T10:03:18.832Z,0.60
2023-02-02T10:05:53.378Z,0.80
2023-02-02T10:08:37.508Z,1.42
2023-02-02T10:11:27.624Z,1.20
2023-02-02T10:14:02.593Z,1.88
2023-02-02T10:16:31.033Z,1.90
2023-02-02T10:19:12.255Z,1.27
2023-02-02T10:22:06.499Z,1.48
2023-02-02T10:24:36.182Z,1.50
2023-02-02T10:27:14.153Z,1.63
2023-02-02T10:29:55.303Z,1.10
2023-02-02T10:32:26.497Z,1.45
2023-02-02T10:35:12.529Z,1.00
2023-02-02T10:38:03.669Z,1.55
2023-02-02T10:40:47.783Z,0.85
2023-02-02T10:43:55.765Z,0.70
2023-02-02T10:46:34.419Z,0.55
2023-02-02T10:49:33.278Z,0.60
2023-02-02T10:52:11.052Z,0.50
2023-02-02T10:54:55.017Z,0.60
2023-02-02T10:57:41.253Z,0.50
2023-02-02T11:00:25.865Z,0.60
2023-02-02T11:02:53.480Z,0.75
2023-02-02T11:05:46.970Z,0.55
2023-02-02T11:08:19.125Z,0.63
2023-02-02T11:10:48.460Z,1.03
2023-02-02T11:13:38.426Z,1.17
2023-02-02T11:16:22.037Z,0.82
2023-02-02T11:18:49.430Z,1.15
2023-02-02T11:21:21.307Z,1.63
2023-02-02T11:23:56.358Z,1.10
2023-02-02T11:26:25.058Z,1.45
2023-02-02T11:28:55.080Z,1.30
2023-02-02T11:31:37.961Z,1.10
2023-02-02T11:34:10.324Z,1.10
2023-02-02T11:36:41.511Z,0.73
2023-02-02T11:39:16.310Z,1.10
2023-02-02T11:41:42.991Z,0.93
2023-02-02T11:44:28.238Z,0.70
2023-02-02T11:47:00.941Z,0.80
2023-02-02T11:49:33.312Z,0.80
2023-02-02T11:52:04.577Z,0.88
2023-02-02T11:54:34.505Z,0.80
2023-02-02T11:57:04.247Z,0.60
2023-02-02T11:59:44.969Z,0.70
2023-02-02T12:02:29.578Z,1.20
2023-02-02T12:05:19.670Z,1.02
2023-02-02T12:07:48.013Z,0.80
2023-02-02T12:10:52.620Z,0.90
2023-02-02T12:13:54.014Z,0.45
2023-02-02T12:16:44.207Z,0.80
2023-02-02T12:19:24.286Z,0.70
2023-02-02T12:22:16.697Z,0.68
2023-02-02T12:25:12.645Z,0.50
2023-02-02T12:27:41.997Z,0.60
2023-02-02T12:30:42.717Z,0.40
2023-02-02T12:33:29.984Z,0.43
2023-02-02T12:36:34.130Z,0.40
2023-02-02T12:39:19.914Z,1.02
2023-02-02T12:42:11.351Z,0.32
2023-02-02T12:44:46.645Z,0.73
2023-02-02T12:47:49.535Z,0.85
2023-02-02T12:50:45.443Z,0.55
2023-02-02T12:53:38.182Z,0.60
2023-02-02T12:56:12.829Z,0.55
2023-02-02T12:58:53.811Z,0.30
2023-02-02T13:01:39.274Z,0.73
2023-02-02T13:04:30.204Z,0.60
2023-02-02T13:07:26.587Z,0.57
2023-02-02T13:10:13.132Z,0.57
2023-02-02T13:12:56.968Z,0.60
2023-02-02T13:15:31.076Z,0.40
2023-02-02T13:18:06.687Z,0.52
2023-02-02T13:20:43.583Z,0.30
2023-02-02T13:23:15.511Z,0.30
2023-02-02T13:26:12.996Z,0.47
2023-02-02T13:28:58.317Z,0.50
2023-02-02T13:31:42.683Z,0.30
2023-02-02T13:34:19.435Z,0.45
2023-02-02T13:37:23.902Z,0.50
2023-02-02T13:39:58.621Z,0.70
2023-02-02T13:42:38.189Z,0.30
2023-02-02T13:45:40.814Z,0.98
2023-02-02T13:48:47.561Z,0.50
2023-02-02T13:51:32.485Z,1.00
2023-02-02T13:54:14.948Z,0.93
2023-02-02T13:57:13.087Z,0.32
2023-02-02T13:59:54.159Z,0.80
2023-02-02T14:02:49.595Z,0.43
2023-02-02T14:05:30.357Z,0.47
2023-02-02T14:08:07.429Z,0.60
2023-02-02T14:10:43.264Z,0.28
2023-02-02T14:13:32.979Z,0.40
2023-02-02T14:16:06.736Z,0.50
2023-02-02T14:18:48.858Z,0.30
2023-02-02T14:21:34.433Z,0.43
2023-02-02T14:24:29.755Z,0.38
2023-02-02T14:27:01.853Z,0.40
2023-02-02T14:29:31.921Z,0.32
2023-02-02T14:32:00.051Z,0.60
2023-02-02T14:34:31.306Z,0.30
2023-02-02T14:37:27.789Z,0.30
2023-02-02T14:40:04.431Z,0.47
2023-02-02T14:42:55.786Z,0.40
2023-02-02T14:45:39.248Z,0.40
2023-02-02T14:48:22.187Z,0.93
2023-02-02T14:50:57.537Z,0.32
2023-02-02T14:53:26.598Z,0.40
2023-02-02T14:55:58.480Z,0.28
2023-02-02T14:58:34.189Z,0.60
2023-02-02T15:01:24.963Z,0.40
2023-02-02T15:04:01.016Z,0.60
2023-02-02T15:06:35.870Z,0.90
2023-02-02T15:09:21.439Z,0.90
2023-02-02T15:12:01.680Z,0.70
2023-02-02T15:14:34.174Z,0.57
2023-02-02T15:17:12.518Z,0.30
2023-02-02T15:19:47.101Z,0.60
2023-02-02T15:22:31.589Z,0.65
2023-02-02T15:25:03.177Z,0.50
2023-02-02T15:27:31.552Z,0.43
2023-02-02T15:30:09.124Z,0.40
2023-02-02T15:32:36.507Z,0.20
2023-02-02T15:35:13.705Z,0.30
2023-02-02T15:37:47.083Z,0.22
2023-02-02T15:40:16.069Z,0.37
2023-02-02T15:42:55.191Z,0.20
2023-02-02T15:45:34.527Z,0.47
2023-02-02T15:48:26.555Z,0.40
2023-02-02T15:50:57.695Z,0.30
2023-02-02T15:53:48.245Z,0.33
2023-02-02T15:56:30.300Z,0.10
2023-02-02T15:58:59.566Z,0.35
2023-02-02T16:01:31.643Z,0.28
2023-02-02T16:04:10.242Z,0.30
2023-02-02T16:06:37.127Z,0.40
2023-02-02T16:09:07.360Z,0.70
2023-02-02T16:11:41.206Z,1.10
2023-02-02T16:14:32.151Z,0.65
2023-02-02T16:17:30.339Z,0.35
2023-02-02T16:20:08.701Z,0.40
2023-02-02T16:22:37.683Z,0.38
2023-02-02T16:25:36.211Z,0.60
2023-02-02T16:28:03.635Z,0.20
2023-02-02T16:30:38.030Z,0.50
2023-02-02T16:33:30.432Z,0.50
2023-02-02T16:35:57.696Z,0.63
2023-02-02T16:38:34.879Z,0.40
2023-02-02T16:41:26.561Z,0.40
2023-02-02T16:43:56.799Z,0.63
2023-02-02T16:46:53.169Z,0.60
2023-02-02T16:49:26.385Z,0.30
2023-02-02T16:52:29.880Z,0.30
2023-02-02T16:54:57.601Z,0.60
2023-02-02T16:57:34.196Z,0.40
2023-02-02T17:00:06.644Z,0.60
2023-02-02T17:02:37.748Z,0.32
2023-02-02T17:05:16.623Z,0.50
2023-02-02T17:07:52.132Z,0.70
2023-02-02T17:10:18.655Z,0.50
2023-02-02T17:12:45.981Z,0.30
2023-02-02T17:15:18.627Z,0.50
2023-02-02T17:17:48.224Z,0.50
2023-02-02T17:20:16.564Z,0.20
2023-02-02T17:22:55.844Z,0.47
2023-02-02T17:25:32.868Z,0.40
2023-02-02T17:28:09.409Z,0.40
2023-02-02T17:30:36.468Z,0.22
2023-02-02T17:33:11.916Z,0.60
2023-02-02T17:35:53.265Z,0.40
2023-02-02T17:38:24.744Z,0.60
2023-02-02T17:40:53.026Z,0.50
2023-02-02T17:43:19.550Z,0.65
2023-02-02T17:45:46.689Z,0.32
2023-02-02T17:48:21.940Z,0.65
2023-02-02T17:50:49.149Z,0.50
2023-02-02T17:53:24.137Z,0.30
2023-02-02T17:55:52.002Z,0.30
2023-02-02T17:58:19.693Z,0.25
2023-02-02T18:00:53.848Z,0.10
2023-02-02T18:03:56.545Z,0.30
2023-02-02T18:06:27.900Z,0.30
2023-02-02T18:08:57.726Z,0.50
2023-02-02T18:11:24.775Z,0.30
2023-02-02T18:13:51.489Z,0.50
2023-02-02T18:16:21.388Z,0.30
2023-02-02T18:18:48.490Z,0.30
2023-02-02T18:21:25.576Z,0.40
2023-02-02T18:23:59.434Z,0.35
2023-02-02T18:26:29.073Z,0.30
2023-02-02T18:29:05.582Z,0.30
2023-02-02T18:31:50.018Z,0.30
2023-02-02T18:34:20.535Z,0.13
2023-02-02T18:37:14.808Z,0.32
2023-02-02T18:39:41.422Z,0.38
2023-02-02T18:42:10.873Z,0.33
2023-02-02T18:44:46.493Z,0.52
2023-02-02T18:47:41.698Z,0.30
2023-02-02T18:50:41.653Z,0.25
2023-02-02T18:53:10.983Z,0.43
2023-02-02T18:55:45.086Z,0.27
2023-02-02T18:58:34.947Z,0.40
2023-02-02T19:01:41.197Z,0.68
2023-02-02T19:04:48.456Z,0.30
2023-02-02T19:07:33.785Z,0.30
2023-02-02T19:10:02.988Z,0.50
2023-02-02T19:12:30.250Z,0.32
2023-02-02T19:14:58.920Z,0.32
2023-02-02T19:17:31.964Z,0.30
2023-02-02T19:20:05.286Z,0.75
2023-02-02T19:23:05.854Z,0.70
2023-02-02T19:25:38.778Z,0.40
2023-02-02T19:28:29.737Z,0.40
2023-02-02T19:31:01.722Z,0.52
2023-02-02T19:33:53.027Z,0.30
2023-02-02T19:36:24.647Z,0.60
2023-02-02T19:39:24.472Z,0.52
2023-02-02T19:44:46.012Z,0.65
2023-02-02T19:47:25.788Z,0.57
2023-02-02T19:49:57.440Z,0.33
2023-02-02T19:52:32.920Z,0.80
2023-02-02T19:55:00.943Z,0.50
2023-02-02T19:57:40.841Z,0.70
2023-02-02T20:00:30.534Z,0.28
2023-02-02T20:03:04.987Z,0.50
2023-02-02T20:05:42.203Z,0.40
2023-02-02T20:08:23.235Z,0.40
2023-02-02T20:10:51.273Z,0.40
2023-02-02T20:13:25.547Z,0.50
2023-02-02T20:16:03.366Z,0.63
2023-02-02T20:18:46.569Z,0.65
2023-02-02T20:21:32.880Z,0.80
2023-02-02T20:23:59.648Z,0.60
2023-02-02T20:26:37.151Z,0.38
2023-02-02T20:29:41.135Z,0.30
2023-02-02T20:32:39.408Z,0.90
2023-02-02T20:35:27.362Z,1.42
2023-02-02T20:37:56.148Z,0.50
2023-02-02T20:40:28.186Z,0.38
2023-02-02T20:42:57.889Z,0.60
2023-02-02T20:45:33.366Z,0.50
2023-02-02T20:48:04.889Z,0.38
2023-02-02T20:50:31.730Z,0.35
2023-02-02T20:53:01.689Z,0.40
2023-02-02T20:55:38.645Z,0.40
2023-02-02T20:58:30.625Z,0.20
2023-02-02T21:00:55.564Z,0.60
2023-02-02T21:03:22.281Z,0.60
2023-02-02T21:05:52.544Z,0.40
2023-02-02T21:08:25.076Z,0.40
2023-02-02T21:10:54.122Z,0.40
2023-02-02T21:13:20.720Z,0.30
2023-02-02T21:15:50.867Z,0.20
2023-02-02T21:18:18.045Z,0.50
2023-02-02T21:20:47.505Z,0.30
2023-02-02T21:23:20.564Z,0.20
2023-02-02T21:25:49.878Z,0.40
2023-02-02T21:28:29.337Z,0.30
2023-02-02T21:31:02.724Z,0.10
2023-02-02T21:33:30.059Z,0.30
2023-02-02T21:36:32.462Z,0.30
2023-02-02T21:39:09.260Z,0.30
2023-02-02T21:41:44.619Z,0.40
2023-02-02T21:44:25.744Z,0.40
2023-02-02T21:46:53.654Z,0.60
2023-02-02T21:49:45.865Z,0.20
2023-02-02T21:55:37.070Z,0.40
2023-02-02T21:58:19.689Z,0.40
2023-02-02T22:00:51.378Z,0.40
2023-02-02T22:03:38.482Z,0.30
2023-02-02T22:06:37.415Z,0.20
2023-02-02T22:09:17.682Z,0.35
2023-02-02T22:12:28.705Z,0.22
2023-02-02T22:15:01.108Z,0.20
2023-02-02T22:17:45.973Z,0.50
2023-02-02T22:20:15.744Z,0.45
2023-02-02T22:22:47.688Z,0.38
2023-02-02T22:25:17.330Z,0.20
2023-02-02T22:27:53.763Z,0.30
2023-02-02T22:30:58.949Z,0.20
2023-02-02T22:33:26.709Z,0.40
2023-02-02T22:35:54.385Z,0.43
2023-02-02T22:38:25.341Z,0.43
2023-02-02T22:41:00.966Z,0.40
2023-02-02T22:43:28.027Z,0.35
2023-02-02T22:45:54.711Z,0.40
2023-02-02T22:48:24.384Z,0.20
2023-02-02T22:50:58.294Z,0.43
2023-02-02T22:53:25.106Z,0.40
2023-02-02T22:55:57.631Z,0.40
2023-02-02T22:58:25.294Z,0.25
2023-02-02T23:00:52.636Z,1.02
2023-02-02T23:03:22.456Z,0.52
2023-02-02T23:05:52.342Z,0.30
2023-02-02T23:08:18.873Z,0.20
2023-02-02T23:10:45.465Z,0.70
2023-02-02T23:13:12.099Z,0.20
2023-02-02T23:15:38.887Z,0.30
2023-02-02T23:18:05.543Z,0.60
2023-02-02T23:20:32.151Z,0.30
2023-02-02T23:22:58.933Z,0.28
2023-02-02T23:25:25.541Z,0.50
2023-02-02T23:27:52.251Z,0.40
2023-02-02T23:30:22.077Z,0.50
2023-02-02T23:32:49.048Z,0.30
2023-02-02T23:35:16.167Z,0.52
2023-02-02T23:37:42.697Z,0.40
2023-02-02T23:40:10.110Z,0.40
2023-02-02T23:42:37.512Z,0.30
2023-02-02T23:45:04.390Z,0.40
2023-02-02T23:47:37.024Z,0.30
2023-02-02T23:50:06.511Z,0.50
2023-02-02T23:52:34.840Z,0.20
2023-02-02T23:55:02.291Z,0.40
2023-02-02T23:57:29.324Z,0.30
2023-02-02T23:59:55.944Z,0.17
